createdAt,value
2019-05-02T00:00:33.063Z,985.10
2019-05-02T00:01:33.215Z,985.12
2019-05-02T00:02:33.358Z,985.07
2019-05-02T00:03:35.871Z,985.07
2019-05-02T00:04:33.656Z,985.06
2019-05-02T00:05:33.805Z,985.04
2019-05-02T00:06:38.211Z,985.07
2019-05-02T00:07:34.099Z,985.05
2019-05-02T00:08:34.425Z,985.03
2019-05-02T00:09:34.397Z,985.04
2019-05-02T00:10:34.546Z,985.07
2019-05-02T00:11:34.692Z,985.03
2019-05-02T00:12:34.840Z,985.06
2019-05-02T00:13:34.987Z,985.06
2019-05-02T00:14:35.135Z,985.02
2019-05-02T00:15:38.263Z,985.05
2019-05-02T00:16:35.436Z,985.04
2019-05-02T00:17:35.581Z,985.05
2019-05-02T00:18:37.084Z,985.02
2019-05-02T00:19:35.882Z,984.98
2019-05-02T00:20:36.025Z,984.97
2019-05-02T00:21:38.205Z,984.96
2019-05-02T00:22:36.321Z,984.97
2019-05-02T00:23:36.470Z,984.95
2019-05-02T00:24:39.390Z,984.95
2019-05-02T00:25:36.793Z,984.97
2019-05-02T00:26:36.943Z,984.91
2019-05-02T00:27:37.671Z,984.94
2019-05-02T00:28:37.239Z,984.95
2019-05-02T00:29:37.387Z,984.95
2019-05-02T00:30:37.535Z,984.95
2019-05-02T00:31:37.699Z,984.94
2019-05-02T00:32:37.830Z,984.90
2019-05-02T00:33:37.979Z,984.91
2019-05-02T00:34:38.128Z,984.87
2019-05-02T00:35:40.881Z,984.87
2019-05-02T00:36:38.429Z,984.85
2019-05-02T00:37:38.570Z,984.88
2019-05-02T00:38:39.872Z,984.85
2019-05-02T00:39:38.865Z,984.84
2019-05-02T00:40:39.013Z,984.87
2019-05-02T00:41:40.504Z,984.89
2019-05-02T00:42:39.311Z,984.89
2019-05-02T00:43:39.459Z,984.86
2019-05-02T00:44:42.094Z,984.85
2019-05-02T00:45:39.764Z,984.76
2019-05-02T00:46:39.906Z,984.80
2019-05-02T00:47:42.172Z,984.78
2019-05-02T00:48:40.200Z,984.79
2019-05-02T00:49:40.349Z,984.73
2019-05-02T00:50:44.955Z,984.78
2019-05-02T00:51:40.647Z,984.77
2019-05-02T00:52:40.796Z,984.76
2019-05-02T00:53:44.477Z,984.73
2019-05-02T00:54:41.089Z,984.71
2019-05-02T00:55:41.239Z,984.68
2019-05-02T00:56:44.198Z,984.73
2019-05-02T00:57:41.535Z,984.70
2019-05-02T00:58:41.682Z,984.71
2019-05-02T00:59:42.453Z,984.67
2019-05-02T01:00:41.979Z,984.66
2019-05-02T01:01:42.130Z,984.65
2019-05-02T01:02:42.275Z,984.64
2019-05-02T01:03:42.421Z,984.68
2019-05-02T01:04:42.571Z,984.64
2019-05-02T01:05:42.718Z,984.65
2019-05-02T01:06:44.640Z,984.67
2019-05-02T01:07:43.017Z,984.64
2019-05-02T01:08:43.165Z,984.64
2019-05-02T01:09:46.871Z,984.64
2019-05-02T01:10:43.460Z,984.62
2019-05-02T01:11:43.607Z,984.59
2019-05-02T01:12:44.363Z,984.60
2019-05-02T01:13:43.903Z,984.63
2019-05-02T01:14:44.051Z,984.57
2019-05-02T01:15:44.363Z,984.58
2019-05-02T01:16:44.346Z,984.57
2019-05-02T01:17:44.495Z,984.56
2019-05-02T01:18:44.644Z,984.55
2019-05-02T01:19:47.214Z,984.54
2019-05-02T01:20:44.938Z,984.56
2019-05-02T01:21:45.086Z,984.54
2019-05-02T01:22:47.212Z,984.51
2019-05-02T01:23:45.384Z,984.50
2019-05-02T01:24:45.532Z,984.49
2019-05-02T01:25:47.389Z,984.54
2019-05-02T01:26:45.825Z,984.53
2019-05-02T01:27:45.971Z,984.53
2019-05-02T01:28:49.275Z,984.53
2019-05-02T01:29:46.268Z,984.51
2019-05-02T01:30:46.413Z,984.54
2019-05-02T01:31:49.927Z,984.48
2019-05-02T01:32:46.709Z,984.51
2019-05-02T01:33:46.856Z,984.51
2019-05-02T01:34:48.993Z,984.47
2019-05-02T01:35:47.150Z,984.52
2019-05-02T01:36:47.297Z,984.47
2019-05-02T01:37:51.033Z,984.47
2019-05-02T01:38:47.597Z,984.46
2019-05-02T01:39:47.741Z,984.46
2019-05-02T01:40:48.070Z,984.42
2019-05-02T01:41:48.033Z,984.44
2019-05-02T01:42:49.021Z,984.45
2019-05-02T01:43:48.333Z,984.43
2019-05-02T01:44:48.480Z,984.43
2019-05-02T01:45:48.628Z,984.42
2019-05-02T01:46:48.776Z,984.39
2019-05-02T01:47:48.925Z,984.38
2019-05-02T01:48:49.071Z,984.40
2019-05-02T01:49:52.031Z,984.41
2019-05-02T01:50:49.368Z,984.43
2019-05-02T01:51:49.516Z,984.40
2019-05-02T01:52:53.614Z,984.39
2019-05-02T01:53:49.812Z,984.42
2019-05-02T01:54:49.961Z,984.42
2019-05-02T01:55:51.867Z,984.41
2019-05-02T01:56:50.258Z,984.40
2019-05-02T01:57:50.406Z,984.38
2019-05-02T01:58:53.079Z,984.42
2019-05-02T01:59:50.703Z,984.42
2019-05-02T02:00:50.850Z,984.41
2019-05-02T02:01:53.086Z,984.40
2019-05-02T02:02:51.145Z,984.35
2019-05-02T02:03:51.289Z,984.35
2019-05-02T02:04:52.202Z,984.38
2019-05-02T02:05:51.588Z,984.37
2019-05-02T02:06:51.736Z,984.34
2019-05-02T02:07:55.573Z,984.32
2019-05-02T02:08:52.034Z,984.34
2019-05-02T02:09:52.180Z,984.34
2019-05-02T02:10:56.636Z,984.35
2019-05-02T02:11:52.475Z,984.25
2019-05-02T02:13:03.656Z,984.27
2019-05-02T02:13:52.768Z,984.26
2019-05-02T02:14:53.606Z,984.30
2019-05-02T02:15:53.063Z,984.29
2019-05-02T02:16:53.211Z,984.27
2019-05-02T02:17:53.383Z,984.26
2019-05-02T02:18:53.505Z,984.26
2019-05-02T02:19:53.652Z,984.24
2019-05-02T02:20:53.800Z,984.26
2019-05-02T02:21:57.430Z,984.24
2019-05-02T02:22:54.095Z,984.26
2019-05-02T02:23:54.242Z,984.26
2019-05-02T02:24:56.035Z,984.31
2019-05-02T02:25:54.537Z,984.26
2019-05-02T02:26:54.684Z,984.27
2019-05-02T02:27:59.208Z,984.29
2019-05-02T02:28:54.980Z,984.27
2019-05-02T02:29:55.126Z,984.25
2019-05-02T02:30:57.943Z,984.23
2019-05-02T02:31:55.423Z,984.27
2019-05-02T02:33:00.684Z,984.23
2019-05-02T02:33:55.720Z,984.19
2019-05-02T02:34:55.868Z,984.18
2019-05-02T02:35:56.013Z,984.15
2019-05-02T02:36:56.161Z,984.16
2019-05-02T02:37:56.307Z,984.17
2019-05-02T02:38:56.459Z,984.15
2019-05-02T02:39:56.604Z,984.12
2019-05-02T02:40:56.750Z,984.18
2019-05-02T02:41:56.899Z,984.16
2019-05-02T02:42:57.047Z,984.14
2019-05-02T02:44:00.567Z,984.10
2019-05-02T02:44:57.353Z,984.15
2019-05-02T02:45:59.516Z,984.14
2019-05-02T02:46:57.635Z,984.12
2019-05-02T02:47:59.855Z,984.15
2019-05-02T02:48:58.000Z,984.13
2019-05-02T02:50:02.276Z,984.15
2019-05-02T02:50:58.227Z,984.09
2019-05-02T02:52:04.253Z,984.11
2019-05-02T02:52:58.524Z,984.11
2019-05-02T02:54:03.745Z,984.09
2019-05-02T02:54:58.815Z,984.11
2019-05-02T02:56:01.767Z,984.10
2019-05-02T02:56:59.109Z,984.09
2019-05-02T02:58:04.817Z,984.04
2019-05-02T02:58:59.403Z,984.06
2019-05-02T03:01:31.594Z,984.05
2019-05-02T03:02:31.738Z,984.07
2019-05-02T03:03:35.112Z,983.97
2019-05-02T03:04:32.028Z,983.99
2019-05-02T03:05:32.177Z,983.99
2019-05-02T03:06:32.321Z,983.99
2019-05-02T03:07:32.467Z,984.00
2019-05-02T03:08:32.602Z,984.01
2019-05-02T03:09:32.785Z,983.99
2019-05-02T03:10:32.936Z,983.98
2019-05-02T03:11:33.077Z,983.97
2019-05-02T03:12:36.272Z,983.93
2019-05-02T03:13:50.432Z,983.92
2019-05-02T03:14:33.512Z,983.91
2019-05-02T03:15:33.658Z,983.92
2019-05-02T03:16:33.805Z,983.90
2019-05-02T03:17:33.951Z,983.86
2019-05-02T03:18:40.542Z,983.91
2019-05-02T03:19:34.241Z,983.88
2019-05-02T03:20:39.986Z,983.88
2019-05-02T03:21:34.536Z,983.86
2019-05-02T03:22:41.357Z,983.87
2019-05-02T03:23:34.830Z,983.90
2019-05-02T03:24:36.521Z,983.85
2019-05-02T03:25:50.037Z,983.87
2019-05-02T03:26:35.270Z,983.84
2019-05-02T03:27:37.139Z,983.87
2019-05-02T03:28:35.564Z,983.86
2019-05-02T03:29:43.961Z,983.86
2019-05-02T03:30:37.651Z,983.90
2019-05-02T03:31:36.005Z,983.86
2019-05-02T03:32:36.593Z,983.86
2019-05-02T03:33:52.166Z,983.88
2019-05-02T03:34:47.547Z,983.90
2019-05-02T03:35:42.961Z,983.89
2019-05-02T03:36:37.305Z,983.84
2019-05-02T03:37:36.888Z,983.83
2019-05-02T03:38:37.040Z,983.84
2019-05-02T03:39:37.180Z,983.85
2019-05-02T03:40:39.266Z,983.86
2019-05-02T03:41:37.475Z,983.85
2019-05-02T03:42:44.817Z,983.82
2019-05-02T03:43:37.770Z,983.87
2019-05-02T03:44:37.915Z,983.86
2019-05-02T03:45:40.039Z,983.84
2019-05-02T03:46:38.224Z,983.85
2019-05-02T03:47:43.659Z,983.83
2019-05-02T03:48:38.519Z,983.83
2019-05-02T03:49:40.845Z,983.81
2019-05-02T03:50:38.811Z,983.84
2019-05-02T03:51:38.965Z,983.81
2019-05-02T03:52:43.468Z,983.83
2019-05-02T03:53:39.251Z,983.77
2019-05-02T03:54:48.441Z,983.73
2019-05-02T03:55:39.544Z,983.75
2019-05-02T03:56:44.627Z,983.75
2019-05-02T03:57:42.201Z,983.75
2019-05-02T03:58:40.000Z,983.76
2019-05-02T03:59:41.823Z,983.78
2019-05-02T04:00:40.278Z,983.73
2019-05-02T04:01:41.268Z,983.79
2019-05-02T04:02:40.572Z,983.80
2019-05-02T04:03:43.481Z,983.78
2019-05-02T04:04:40.864Z,983.82
2019-05-02T04:05:42.222Z,983.83
2019-05-02T04:06:41.160Z,983.82
2019-05-02T04:07:42.272Z,983.83
2019-05-02T04:08:41.448Z,983.90
2019-05-02T04:09:42.561Z,983.88
2019-05-02T04:10:41.751Z,983.83
2019-05-02T04:11:41.890Z,983.85
2019-05-02T04:12:42.040Z,983.84
2019-05-02T04:13:42.189Z,983.85
2019-05-02T04:14:42.334Z,983.86
2019-05-02T04:15:42.479Z,983.85
2019-05-02T04:16:48.486Z,983.84
2019-05-02T04:17:42.776Z,983.86
2019-05-02T04:18:54.502Z,983.89
2019-05-02T04:19:43.066Z,983.88
2019-05-02T04:20:43.494Z,983.89
2019-05-02T04:21:43.361Z,983.89
2019-05-02T04:22:49.071Z,983.87
2019-05-02T04:23:43.654Z,983.90
2019-05-02T04:24:48.010Z,983.89
2019-05-02T04:25:43.946Z,983.90
2019-05-02T04:26:53.649Z,983.90
2019-05-02T04:27:44.243Z,983.93
2019-05-02T04:28:49.273Z,983.92
2019-05-02T04:29:44.537Z,983.93
2019-05-02T04:30:45.180Z,983.92
2019-05-02T04:31:44.826Z,983.93
2019-05-02T04:32:49.866Z,983.92
2019-05-02T04:33:45.118Z,983.97
2019-05-02T04:34:49.153Z,983.97
2019-05-02T04:35:45.411Z,983.95
2019-05-02T04:36:46.791Z,983.98
2019-05-02T04:37:45.699Z,983.98
2019-05-02T04:38:48.785Z,983.99
2019-05-02T04:39:48.889Z,983.95
2019-05-02T04:40:48.885Z,983.97
2019-05-02T04:41:48.616Z,984.04
2019-05-02T04:42:51.272Z,983.98
2019-05-02T04:43:54.596Z,984.00
2019-05-02T04:45:08.796Z,984.02
2019-05-02T04:45:55.836Z,984.05
2019-05-02T04:46:48.881Z,984.04
2019-05-02T04:47:54.740Z,984.00
2019-05-02T04:48:49.731Z,984.04
2019-05-02T04:49:51.534Z,984.06
2019-05-02T04:50:48.351Z,984.07
2019-05-02T04:51:59.881Z,984.10
2019-05-02T04:52:53.641Z,984.06
2019-05-02T04:53:49.792Z,984.06
2019-05-02T04:54:48.894Z,984.08
2019-05-02T04:55:52.066Z,984.06
2019-05-02T04:56:53.441Z,984.09
2019-05-02T04:57:51.040Z,984.07
2019-05-02T04:58:49.655Z,984.08
2019-05-02T04:59:50.642Z,984.08
2019-05-02T05:00:53.674Z,984.08
2019-05-02T05:01:56.673Z,984.06
2019-05-02T05:02:52.989Z,984.08
2019-05-02T05:03:58.234Z,984.03
2019-05-02T05:04:49.671Z,984.02
2019-05-02T05:05:49.797Z,984.02
2019-05-02T05:06:58.154Z,984.07
2019-05-02T05:07:50.090Z,984.05
2019-05-02T05:08:50.237Z,984.05
2019-05-02T05:09:58.096Z,984.05
2019-05-02T05:10:50.532Z,984.01
2019-05-02T05:11:53.796Z,984.02
2019-05-02T05:12:50.824Z,984.05
2019-05-02T05:13:52.561Z,984.02
2019-05-02T05:14:51.121Z,984.03
2019-05-02T05:15:51.907Z,984.05
2019-05-02T05:16:55.524Z,984.05
2019-05-02T05:17:51.561Z,984.05
2019-05-02T05:18:53.196Z,984.07
2019-05-02T05:19:51.854Z,984.06
2019-05-02T05:20:53.083Z,984.03
2019-05-02T05:21:56.709Z,984.06
2019-05-02T05:22:52.295Z,984.08
2019-05-02T05:23:59.498Z,984.10
2019-05-02T05:24:52.589Z,984.09
2019-05-02T05:25:55.845Z,984.07
2019-05-02T05:26:52.883Z,984.12
2019-05-02T05:27:57.553Z,984.09
2019-05-02T05:28:53.177Z,984.15
2019-05-02T05:29:58.379Z,984.10
2019-05-02T05:30:53.473Z,984.09
2019-05-02T05:31:55.026Z,984.12
2019-05-02T05:32:53.763Z,984.12
2019-05-02T05:33:53.911Z,984.12
2019-05-02T05:34:54.062Z,984.11
2019-05-02T05:35:54.207Z,984.15
2019-05-02T05:36:54.355Z,984.15
2019-05-02T05:37:54.501Z,984.16
2019-05-02T05:38:54.651Z,984.14
2019-05-02T05:39:54.796Z,984.15
2019-05-02T05:40:54.945Z,984.19
2019-05-02T05:41:55.091Z,984.14
2019-05-02T05:42:57.238Z,984.15
2019-05-02T05:43:57.413Z,984.20
2019-05-02T05:44:55.531Z,984.19
2019-05-02T05:46:06.084Z,984.17
2019-05-02T05:46:57.989Z,984.17
2019-05-02T05:47:57.592Z,984.18
2019-05-02T05:48:57.808Z,984.18
2019-05-02T05:49:57.579Z,984.18
2019-05-02T05:50:57.988Z,984.20
2019-05-02T05:52:02.051Z,984.19
2019-05-02T05:52:59.347Z,984.20
2019-05-02T05:54:02.807Z,984.15
2019-05-02T05:54:57.939Z,984.18
2019-05-02T05:56:01.007Z,984.14
2019-05-02T05:56:57.395Z,984.14
2019-05-02T05:58:00.995Z,984.10
2019-05-02T05:58:59.215Z,984.11
2019-05-02T05:59:58.402Z,984.07
2019-05-02T06:00:58.393Z,984.06
2019-05-02T06:01:58.135Z,984.09
2019-05-02T06:03:10.336Z,984.05
2019-05-02T06:03:58.331Z,984.04
2019-05-02T06:05:02.543Z,984.07
2019-05-02T06:05:58.628Z,984.04
2019-05-02T06:07:02.151Z,984.05
2019-05-02T06:07:58.921Z,984.03
2019-05-02T06:08:59.066Z,984.04
2019-05-02T06:10:02.383Z,984.05
2019-05-02T06:10:59.360Z,984.08
2019-05-02T06:11:59.511Z,984.07
2019-05-02T06:12:59.658Z,984.10
2019-05-02T06:13:59.804Z,984.10
2019-05-02T06:15:01.671Z,984.07
2019-05-02T06:16:02.850Z,984.11
2019-05-02T06:17:00.249Z,984.12
2019-05-02T06:18:04.696Z,984.16
2019-05-02T06:19:00.547Z,984.13
2019-05-02T06:20:00.697Z,984.09
2019-05-02T06:21:06.837Z,984.12
2019-05-02T06:22:00.988Z,984.14
2019-05-02T06:23:01.323Z,984.15
2019-05-02T06:24:01.285Z,984.11
2019-05-02T06:25:01.434Z,984.14
2019-05-02T06:26:07.584Z,984.18
2019-05-02T06:27:01.729Z,984.17
2019-05-02T06:28:05.418Z,984.16
2019-05-02T06:29:02.027Z,984.18
2019-05-02T06:30:02.174Z,984.19
2019-05-02T06:31:07.263Z,984.15
2019-05-02T06:32:02.472Z,984.18
2019-05-02T06:33:02.625Z,984.20
2019-05-02T06:34:07.123Z,984.21
2019-05-02T06:35:02.919Z,984.20
2019-05-02T06:36:03.068Z,984.19
2019-05-02T06:37:03.241Z,984.19
2019-05-02T06:38:03.358Z,984.14
2019-05-02T06:39:03.511Z,984.12
2019-05-02T06:40:08.107Z,984.13
2019-05-02T06:41:03.805Z,984.11
2019-05-02T06:42:03.953Z,984.11
2019-05-02T06:43:09.232Z,984.09
2019-05-02T06:44:04.251Z,984.06
2019-05-02T06:45:04.401Z,984.06
2019-05-02T06:46:15.444Z,984.01
2019-05-02T06:47:05.706Z,983.98
2019-05-02T06:48:04.846Z,983.98
2019-05-02T06:49:04.992Z,983.96
2019-05-02T06:50:05.146Z,983.95
2019-05-02T06:51:05.290Z,983.94
2019-05-02T06:52:05.439Z,983.90
2019-05-02T06:53:09.747Z,983.92
2019-05-02T06:54:05.737Z,983.93
2019-05-02T06:55:05.887Z,983.90
2019-05-02T06:56:08.001Z,983.93
2019-05-02T06:57:06.181Z,983.90
2019-05-02T06:58:08.137Z,983.84
2019-05-02T06:59:06.479Z,983.90
2019-05-02T07:00:06.860Z,983.83
2019-05-02T07:01:06.776Z,983.84
2019-05-02T07:02:06.923Z,983.85
2019-05-02T07:03:10.129Z,983.83
2019-05-02T07:04:07.221Z,983.89
2019-05-02T07:05:07.371Z,983.83
2019-05-02T07:06:07.869Z,983.84
2019-05-02T07:07:07.669Z,983.86
2019-05-02T07:08:11.706Z,983.89
2019-05-02T07:09:08.034Z,983.85
2019-05-02T07:10:08.118Z,983.87
2019-05-02T07:11:08.264Z,983.85
2019-05-02T07:12:09.891Z,983.85
2019-05-02T07:13:10.665Z,983.86
2019-05-02T07:14:13.647Z,983.85
2019-05-02T07:15:08.952Z,983.86
2019-05-02T07:16:10.514Z,983.86
2019-05-02T07:17:09.158Z,983.87
2019-05-02T07:18:10.581Z,983.89
2019-05-02T07:19:09.457Z,983.88
2019-05-02T07:20:09.606Z,983.85
2019-05-02T07:21:12.198Z,983.86
2019-05-02T07:22:09.904Z,983.87
2019-05-02T07:23:10.612Z,983.89
2019-05-02T07:24:10.203Z,983.88
2019-05-02T07:25:10.352Z,983.90
2019-05-02T07:26:10.516Z,983.85
2019-05-02T07:27:10.650Z,983.85
2019-05-02T07:28:10.900Z,983.91
2019-05-02T07:29:10.949Z,983.91
2019-05-02T07:30:11.100Z,983.94
2019-05-02T07:31:12.047Z,983.92
2019-05-02T07:32:11.396Z,983.93
2019-05-02T07:33:11.548Z,983.91
2019-05-02T07:34:12.974Z,983.88
2019-05-02T07:35:11.844Z,983.87
2019-05-02T07:36:11.997Z,983.89
2019-05-02T07:37:12.655Z,983.88
2019-05-02T07:38:12.296Z,983.87
2019-05-02T07:39:12.443Z,983.88
2019-05-02T07:40:16.986Z,983.89
2019-05-02T07:41:12.744Z,983.90
2019-05-02T07:42:12.889Z,983.90
2019-05-02T07:43:19.238Z,983.92
2019-05-02T07:44:13.195Z,983.86
2019-05-02T07:45:13.343Z,983.82
2019-05-02T07:46:16.216Z,983.80
2019-05-02T07:47:13.642Z,983.82
2019-05-02T07:48:17.749Z,983.76
2019-05-02T07:49:13.941Z,983.78
2019-05-02T07:50:14.091Z,983.74
2019-05-02T07:51:17.247Z,983.70
2019-05-02T07:52:14.394Z,983.66
2019-05-02T07:53:14.551Z,983.68
2019-05-02T07:54:14.693Z,983.65
2019-05-02T07:55:14.841Z,983.65
2019-05-02T07:56:17.717Z,983.61
2019-05-02T07:57:15.146Z,983.69
2019-05-02T07:58:15.295Z,983.65
2019-05-02T07:59:18.701Z,983.66
2019-05-02T08:00:15.591Z,983.66
2019-05-02T08:01:15.745Z,983.70
2019-05-02T08:02:20.365Z,983.66
2019-05-02T08:03:16.053Z,983.67
2019-05-02T08:04:16.197Z,983.70
2019-05-02T08:05:21.892Z,983.65
2019-05-02T08:06:16.499Z,983.66
2019-05-02T08:07:21.100Z,983.65
2019-05-02T08:08:16.799Z,983.65
2019-05-02T08:09:16.961Z,983.59
2019-05-02T08:10:22.214Z,983.61
2019-05-02T08:11:17.249Z,983.63
2019-05-02T08:12:17.401Z,983.62
2019-05-02T08:13:19.301Z,983.59
2019-05-02T08:14:17.702Z,983.57
2019-05-02T08:15:17.850Z,983.48
2019-05-02T08:16:22.401Z,983.50
2019-05-02T08:17:19.295Z,983.47
2019-05-02T08:18:18.304Z,983.48
2019-05-02T08:19:18.454Z,983.48
2019-05-02T08:20:19.573Z,983.51
2019-05-02T08:21:18.753Z,983.47
2019-05-02T08:22:18.903Z,983.48
2019-05-02T08:23:20.458Z,983.49
2019-05-02T08:24:19.208Z,983.50
2019-05-02T08:25:19.357Z,983.48
2019-05-02T08:26:21.807Z,983.54
2019-05-02T08:27:22.763Z,983.49
2019-05-02T08:28:19.808Z,983.50
2019-05-02T08:29:23.428Z,983.56
2019-05-02T08:30:20.114Z,983.57
2019-05-02T08:31:20.976Z,983.54
2019-05-02T08:32:20.410Z,983.59
2019-05-02T08:33:20.559Z,983.58
2019-05-02T08:34:20.750Z,983.61
2019-05-02T08:35:20.861Z,983.54
2019-05-02T08:36:21.014Z,983.59
2019-05-02T08:37:21.160Z,983.53
2019-05-02T08:38:21.313Z,983.61
2019-05-02T08:39:26.010Z,983.63
2019-05-02T08:40:21.615Z,983.60
2019-05-02T08:41:21.769Z,983.54
2019-05-02T08:42:21.917Z,983.59
2019-05-02T08:43:22.069Z,983.55
2019-05-02T08:44:22.220Z,983.58
2019-05-02T08:45:22.377Z,983.53
2019-05-02T08:46:22.528Z,983.58
2019-05-02T08:47:23.783Z,983.57
2019-05-02T08:48:22.898Z,983.54
2019-05-02T08:49:22.984Z,983.57
2019-05-02T08:50:27.079Z,983.53
2019-05-02T08:51:23.282Z,983.50
2019-05-02T08:52:23.437Z,983.40
2019-05-02T08:53:23.585Z,983.44
2019-05-02T08:54:28.018Z,983.46
2019-05-02T08:55:23.888Z,983.50
2019-05-02T08:56:24.038Z,983.50
2019-05-02T08:57:24.270Z,983.48
2019-05-02T08:58:24.340Z,983.51
2019-05-02T08:59:26.093Z,983.53
2019-05-02T09:00:24.652Z,983.50
2019-05-02T09:01:34.604Z,983.50
2019-05-02T09:02:25.866Z,983.51
2019-05-02T09:03:25.098Z,983.46
2019-05-02T09:04:29.181Z,983.44
2019-05-02T09:05:25.392Z,983.43
2019-05-02T09:06:25.545Z,983.38
2019-05-02T09:07:25.733Z,983.41
2019-05-02T09:08:25.846Z,983.46
2019-05-02T09:09:28.044Z,983.47
2019-05-02T09:10:26.152Z,983.37
2019-05-02T09:11:26.303Z,983.44
2019-05-02T09:12:26.454Z,983.43
2019-05-02T09:13:29.380Z,983.40
2019-05-02T09:14:26.759Z,983.40
2019-05-02T09:15:26.907Z,983.36
2019-05-02T09:16:29.061Z,983.40
2019-05-02T09:17:36.117Z,983.41
2019-05-02T09:18:35.132Z,983.40
2019-05-02T09:19:27.516Z,983.38
2019-05-02T09:20:27.667Z,983.36
2019-05-02T09:21:34.265Z,983.39
2019-05-02T09:22:27.970Z,983.36
2019-05-02T09:23:35.373Z,983.31
2019-05-02T09:24:28.273Z,983.32
2019-05-02T09:25:28.423Z,983.36
2019-05-02T09:26:36.051Z,983.41
2019-05-02T09:27:28.728Z,983.44
2019-05-02T09:28:28.882Z,983.40
2019-05-02T09:29:29.044Z,983.39
2019-05-02T09:30:29.186Z,983.46
2019-05-02T09:31:29.338Z,983.43
2019-05-02T09:32:29.491Z,983.41
2019-05-02T09:33:29.644Z,983.40
2019-05-02T09:34:31.738Z,983.39
2019-05-02T09:35:29.947Z,983.40
2019-05-02T09:36:32.177Z,983.44
2019-05-02T09:37:32.010Z,983.45
2019-05-02T09:38:30.404Z,983.43
2019-05-02T09:39:32.708Z,983.45
2019-05-02T09:40:31.922Z,983.44
2019-05-02T09:41:32.431Z,983.42
2019-05-02T09:42:32.487Z,983.44
2019-05-02T09:43:37.503Z,983.41
2019-05-02T09:44:33.133Z,983.36
2019-05-02T09:45:33.403Z,983.36
2019-05-02T09:46:32.481Z,983.32
2019-05-02T09:47:34.469Z,983.30
2019-05-02T09:48:32.020Z,983.29
2019-05-02T09:49:32.492Z,983.26
2019-05-02T09:50:34.370Z,983.34
2019-05-02T09:51:32.580Z,983.29
2019-05-02T09:52:39.233Z,983.31
2019-05-02T09:53:32.695Z,983.30
2019-05-02T09:54:37.123Z,983.29
2019-05-02T09:55:33.003Z,983.31
2019-05-02T09:56:33.150Z,983.32
2019-05-02T09:57:33.303Z,983.22
2019-05-02T09:58:33.457Z,983.19
2019-05-02T09:59:33.685Z,983.17
2019-05-02T10:00:36.198Z,983.24
2019-05-02T10:01:33.922Z,983.15
2019-05-02T10:02:34.073Z,983.15
2019-05-02T10:03:34.233Z,983.14
2019-05-02T10:04:34.390Z,983.18
2019-05-02T10:05:34.548Z,983.15
2019-05-02T10:06:34.696Z,983.12
2019-05-02T10:07:34.850Z,983.18
2019-05-02T10:08:38.206Z,983.18
2019-05-02T10:09:35.160Z,983.19
2019-05-02T10:10:37.055Z,983.17
2019-05-02T10:11:35.469Z,983.22
2019-05-02T10:12:35.623Z,983.14
2019-05-02T10:13:35.785Z,983.16
2019-05-02T10:14:35.933Z,983.15
2019-05-02T10:15:36.086Z,983.19
2019-05-02T10:16:36.243Z,983.22
2019-05-02T10:17:37.543Z,983.21
2019-05-02T10:18:36.563Z,983.18
2019-05-02T10:19:41.181Z,983.12
2019-05-02T10:20:36.863Z,983.15
2019-05-02T10:21:37.020Z,983.12
2019-05-02T10:22:39.216Z,983.12
2019-05-02T10:23:37.326Z,983.12
2019-05-02T10:24:37.488Z,983.10
2019-05-02T10:25:38.931Z,983.15
2019-05-02T10:26:37.796Z,983.16
2019-05-02T10:27:38.480Z,983.10
2019-05-02T10:28:41.799Z,983.16
2019-05-02T10:29:38.264Z,983.09
2019-05-02T10:30:38.475Z,983.14
2019-05-02T10:31:38.632Z,983.13
2019-05-02T10:32:38.737Z,983.12
2019-05-02T10:33:38.883Z,983.07
2019-05-02T10:34:39.038Z,983.09
2019-05-02T10:35:40.832Z,983.04
2019-05-02T10:36:42.493Z,983.09
2019-05-02T10:37:39.673Z,983.09
2019-05-02T10:38:39.663Z,983.04
2019-05-02T10:39:39.819Z,983.01
2019-05-02T10:40:39.976Z,983.01
2019-05-02T10:41:41.732Z,982.98
2019-05-02T10:42:41.944Z,983.02
2019-05-02T10:43:42.328Z,982.89
2019-05-02T10:44:42.599Z,982.97
2019-05-02T10:45:42.505Z,982.93
2019-05-02T10:46:41.612Z,982.93
2019-05-02T10:47:42.267Z,982.91
2019-05-02T10:48:42.128Z,982.93
2019-05-02T10:49:42.606Z,982.86
2019-05-02T10:50:42.279Z,982.90
2019-05-02T10:51:49.012Z,982.84
2019-05-02T10:52:42.512Z,982.88
2019-05-02T10:53:42.493Z,982.83
2019-05-02T10:54:42.273Z,982.84
2019-05-02T10:55:42.655Z,982.84
2019-05-02T10:56:42.471Z,982.88
2019-05-02T10:57:42.620Z,982.84
2019-05-02T10:58:42.773Z,982.82
2019-05-02T10:59:42.931Z,982.83
2019-05-02T11:00:45.377Z,982.80
2019-05-02T11:01:43.241Z,982.81
2019-05-02T11:02:43.397Z,982.81
2019-05-02T11:03:47.367Z,982.80
2019-05-02T11:04:43.708Z,982.80
2019-05-02T11:05:43.865Z,982.77
2019-05-02T11:06:46.303Z,982.81
2019-05-02T11:07:44.176Z,982.80
2019-05-02T11:08:46.120Z,982.75
2019-05-02T11:09:44.488Z,982.69
2019-05-02T11:10:44.641Z,982.75
2019-05-02T11:11:44.798Z,982.73
2019-05-02T11:12:47.027Z,982.70
2019-05-02T11:13:45.117Z,982.73
2019-05-02T11:14:45.264Z,982.72
2019-05-02T11:15:45.422Z,982.70
2019-05-02T11:16:45.573Z,982.71
2019-05-02T11:17:45.728Z,982.68
2019-05-02T11:18:45.885Z,982.70
2019-05-02T11:19:46.039Z,982.67
2019-05-02T11:20:46.198Z,982.66
2019-05-02T11:21:55.557Z,982.67
2019-05-02T11:22:46.509Z,982.66
2019-05-02T11:23:46.680Z,982.65
2019-05-02T11:24:46.834Z,982.66
2019-05-02T11:25:46.971Z,982.69
2019-05-02T11:26:47.125Z,982.63
2019-05-02T11:27:47.282Z,982.64
2019-05-02T11:28:47.437Z,982.67
2019-05-02T11:29:47.595Z,982.69
2019-05-02T11:30:47.749Z,982.72
2019-05-02T11:31:47.903Z,982.69
2019-05-02T11:32:48.120Z,982.69
2019-05-02T11:33:48.246Z,982.68
2019-05-02T11:34:48.416Z,982.72
2019-05-02T11:35:49.286Z,982.66
2019-05-02T11:36:48.680Z,982.68
2019-05-02T11:37:48.835Z,982.71
2019-05-02T11:38:55.189Z,982.68
2019-05-02T11:39:52.555Z,982.69
2019-05-02T11:40:49.302Z,982.65
2019-05-02T11:41:49.458Z,982.69
2019-05-02T11:42:49.612Z,982.67
2019-05-02T11:43:49.768Z,982.71
2019-05-02T11:44:49.907Z,982.67
2019-05-02T11:45:54.187Z,982.62
2019-05-02T11:46:51.938Z,982.58
2019-05-02T11:47:50.376Z,982.55
2019-05-02T11:48:56.422Z,982.55
2019-05-02T11:49:52.104Z,982.51
2019-05-02T11:50:52.312Z,982.52
2019-05-02T11:51:52.733Z,982.51
2019-05-02T11:52:52.293Z,982.51
2019-05-02T11:53:52.626Z,982.53
2019-05-02T11:54:52.080Z,982.57
2019-05-02T11:55:53.177Z,982.52
2019-05-02T11:56:53.641Z,982.52
2019-05-02T11:57:52.404Z,982.47
2019-05-02T11:58:52.869Z,982.47
2019-05-02T11:59:52.246Z,982.47
2019-05-02T12:00:52.506Z,982.48
2019-05-02T12:01:59.376Z,982.43
2019-05-02T12:02:54.279Z,982.38
2019-05-02T12:03:52.871Z,982.41
2019-05-02T12:04:55.499Z,982.43
2019-05-02T12:05:53.181Z,982.36
2019-05-02T12:07:00.987Z,982.39
2019-05-02T12:07:53.492Z,982.35
2019-05-02T12:08:53.644Z,982.40
2019-05-02T12:09:57.023Z,982.33
2019-05-02T12:10:53.957Z,982.31
2019-05-02T12:11:56.607Z,982.28
2019-05-02T12:12:54.269Z,982.29
2019-05-02T12:13:56.916Z,982.28
2019-05-02T12:14:54.578Z,982.29
2019-05-02T12:15:54.736Z,982.26
2019-05-02T12:16:54.923Z,982.23
2019-05-02T12:17:55.045Z,982.31
2019-05-02T12:19:08.500Z,982.28
2019-05-02T12:19:55.355Z,982.22
2019-05-02T12:20:55.515Z,982.23
2019-05-02T12:21:55.665Z,982.13
2019-05-02T12:22:55.822Z,982.17
2019-05-02T12:23:56.007Z,982.15
2019-05-02T12:24:56.132Z,982.14
2019-05-02T12:25:56.288Z,982.14
2019-05-02T12:26:56.441Z,982.20
2019-05-02T12:27:56.597Z,982.17
2019-05-02T12:28:56.755Z,982.20
2019-05-02T12:29:59.328Z,982.15
2019-05-02T12:30:57.068Z,982.17
2019-05-02T12:31:57.222Z,982.15